Amorita, Oklahoma
Current Conditions -  °F | °C
As of 5:50 AM on Tuesday 21 Oct 2014 (Local Time) from KAVK Reporting Station
Few Clouds Few Clouds  
Wind Chill: 55°   Ceiling: Unl
Heat Index: 55°   Visibility: 7mi
Dew Point: 55°   Wind: 5mph
Humidity: 100%   Direction: 50°NE
Pressure: 30.06"   Gusts: NA
Location:  36.92°N, 98.29°W
Report Text: KAVK 211050Z AUTO 05004KT 7SM FEW060 13/13 A3006 RMK AO2
Loading
Personal Weather Stations






























Interactive Weather Map
Tropical Storm Tracking
New forecast layout! Learn more

10-Day Weather Forecast

Advertisements
Track Severe Weather on mobile